Time;durP1;ratioP1;P1;durP2;ratioP2;P2;SDS_P1;SDS_P2;PMS_P1;PMS_P2;Temp;Humidity;BMP_temperature;BMP_pressure;BME280_temperature;BME280_humidity;BME280_pressure;Samples;Min_cycle;Max_cycle;Signal;HPM_P1;HPM_P2
2022/05/12 00:01:15;;;;;;;7.63;5.32;;;;;;;;;;5090328;28;20051;-56
2022/05/12 00:03:42;;;;;;;6.85;3.75;;;;;;;;;;5090296;28;20047;-60
2022/05/12 00:06:09;;;;;;;6.45;3.95;;;;;;;;;;5090215;28;20099;-54
2022/05/12 00:08:36;;;;;;;5.07;3.70;;;;;;;;;;5090363;28;20062;-46
2022/05/12 00:11:04;;;;;;;9.93;5.40;;;;;;;;;;5090182;28;20060;-59
2022/05/12 00:13:31;;;;;;;5.15;3.70;;;;;;;;;;5090199;28;20051;-49
2022/05/12 00:15:58;;;;;;;6.45;3.75;;;;;;;;;;5090208;28;20037;-50
2022/05/12 00:18:27;;;;;;;10.45;4.35;;;;;;;;;;5090169;28;20036;-51
2022/05/12 00:20:54;;;;;;;6.40;3.65;;;;;;;;;;5090337;28;20062;-56
2022/05/12 00:23:27;;;;;;;9.70;5.78;;;;;;;;;;5090013;28;20048;-49
2022/05/12 00:25:55;;;;;;;9.40;5.03;;;;;;;;;;5090138;28;20519;-54
2022/05/12 00:28:24;;;;;;;9.82;5.25;;;;;;;;;;5100248;28;20035;-49
2022/05/12 00:30:55;;;;;;;7.97;4.95;;;;;;;;;;5114569;28;20069;-50
2022/05/12 00:33:27;;;;;;;6.65;4.97;;;;;;;;;;5114570;28;20032;-46
2022/05/12 00:35:56;;;;;;;10.52;5.53;;;;;;;;;;5114357;28;20042;-48
2022/05/12 00:38:24;;;;;;;11.70;6.15;;;;;;;;;;5114431;28;20093;-57
2022/05/12 00:40:51;;;;;;;60.90;8.18;;;;;;;;;;5114197;28;20122;-51
2022/05/12 00:43:35;;;;;;;17.25;6.38;;;;;;;;;;5114304;28;20036;-48
2022/05/12 00:46:05;;;;;;;11.70;6.60;;;;;;;;;;5114368;28;20122;-47
2022/05/12 00:48:32;;;;;;;10.85;6.82;;;;;;;;;;5113976;28;20074;-47
2022/05/12 00:51:00;;;;;;;8.77;5.78;;;;;;;;;;5114196;28;20039;-48
2022/05/12 00:53:30;;;;;;;6.05;4.40;;;;;;;;;;5113799;28;20050;-51
2022/05/12 00:55:58;;;;;;;11.75;7.35;;;;;;;;;;5114037;28;20039;-53
2022/05/12 00:58:28;;;;;;;5.13;4.03;;;;;;;;;;5113969;28;20069;-49
2022/05/12 01:00:55;;;;;;;7.55;4.68;;;;;;;;;;5114041;28;20118;-59
2022/05/12 01:03:25;;;;;;;9.45;7.15;;;;;;;;;;5113793;28;20403;-52
2022/05/12 01:05:53;;;;;;;7.15;5.22;;;;;;;;;;5113675;28;20051;-57
2022/05/12 01:08:22;;;;;;;6.10;5.32;;;;;;;;;;5113809;28;20031;-49
2022/05/12 01:11:00;;;;;;;6.82;5.45;;;;;;;;;;5113956;28;20040;-51
2022/05/12 01:13:28;;;;;;;7.13;4.97;;;;;;;;;;5113657;28;20075;-48
2022/05/12 01:15:59;;;;;;;224.93;12.27;;;;;;;;;;5113454;28;20126;-52
2022/05/12 01:18:29;;;;;;;55.53;10.38;;;;;;;;;;5113240;28;20453;-56
2022/05/12 01:20:57;;;;;;;9.55;5.53;;;;;;;;;;5113547;28;20501;-51
2022/05/12 01:23:31;;;;;;;7.53;5.28;;;;;;;;;;5113419;28;20048;-47
2022/05/12 01:26:05;;;;;;;145.75;8.35;;;;;;;;;;5108267;28;20131;-47
2022/05/12 01:28:33;;;;;;;29.35;4.90;;;;;;;;;;5092566;28;20050;-48
2022/05/12 01:31:00;;;;;;;8.27;4.35;;;;;;;;;;5092967;28;20438;-55
2022/05/12 01:33:29;;;;;;;27.40;2.95;;;;;;;;;;5092836;28;20042;-48
2022/05/12 01:35:56;;;;;;;5.45;3.80;;;;;;;;;;5092889;28;20044;-51
2022/05/12 01:38:23;;;;;;;6.55;4.05;;;;;;;;;;5092513;28;20054;-57
2022/05/12 01:40:52;;;;;;;114.97;47.00;;;;;;;;;;5092723;28;20040;-48
2022/05/12 01:43:20;;;;;;;36.55;15.82;;;;;;;;;;5092936;28;20044;-50
2022/05/12 01:45:47;;;;;;;18.27;9.23;;;;;;;;;;5075130;28;20043;-45
2022/05/12 01:48:16;;;;;;;11.85;4.45;;;;;;;;;;5079924;28;20074;-46
2022/05/12 01:50:44;;;;;;;4.32;3.22;;;;;;;;;;5133493;27;20043;-46
2022/05/12 01:53:15;;;;;;;19.92;3.65;;;;;;;;;;5114981;27;20071;-51
2022/05/12 01:55:43;;;;;;;20.95;5.00;;;;;;;;;;5133409;27;20097;-47
2022/05/12 01:58:10;;;;;;;50.35;5.72;;;;;;;;;;5133338;27;20087;-46
2022/05/12 02:00:38;;;;;;;68.65;6.53;;;;;;;;;;5133357;27;20121;-55
2022/05/12 02:03:06;;;;;;;4.90;3.92;;;;;;;;;;5122715;27;20043;-50
2022/05/12 02:05:37;;;;;;;5.72;4.10;;;;;;;;;;5112703;28;20063;-45
2022/05/12 02:08:06;;;;;;;8.32;5.72;;;;;;;;;;5094647;28;20135;-46
2022/05/12 02:10:38;;;;;;;7.88;5.05;;;;;;;;;;5094465;28;20042;-45
2022/05/12 02:13:11;;;;;;;51.25;21.33;;;;;;;;;;5112668;28;20042;-46
2022/05/12 02:15:39;;;;;;;11.30;7.57;;;;;;;;;;5112425;28;20040;-47
2022/05/12 02:18:07;;;;;;;6.60;4.20;;;;;;;;;;5096922;28;59666;-47
2022/05/12 02:20:35;;;;;;;5.68;3.95;;;;;;;;;;5092175;28;20127;-46
2022/05/12 02:23:03;;;;;;;5.72;4.00;;;;;;;;;;5091657;28;20564;-46
2022/05/12 02:25:30;;;;;;;6.70;4.20;;;;;;;;;;5092039;28;20036;-46
2022/05/12 02:27:57;;;;;;;11.07;4.65;;;;;;;;;;5091815;28;20028;-45
2022/05/12 02:30:30;;;;;;;6.55;5.18;;;;;;;;;;5073775;28;20543;-46
2022/05/12 02:32:58;;;;;;;6.80;5.03;;;;;;;;;;5091883;28;20071;-46
2022/05/12 02:35:27;;;;;;;12.40;7.22;;;;;;;;;;5091456;28;20044;-45
2022/05/12 02:37:55;;;;;;;6.78;4.82;;;;;;;;;;5091748;28;20035;-47
2022/05/12 02:40:25;;;;;;;7.75;5.68;;;;;;;;;;5091734;28;20560;-46
2022/05/12 02:42:52;;;;;;;12.65;7.47;;;;;;;;;;5091636;28;20046;-48
2022/05/12 02:45:20;;;;;;;27.90;15.02;;;;;;;;;;5091756;28;20074;-45
2022/05/12 02:47:48;;;;;;;22.33;11.43;;;;;;;;;;5091785;28;20515;-45
2022/05/12 02:50:16;;;;;;;16.30;9.82;;;;;;;;;;5086664;28;20101;-45
2022/05/12 02:52:43;;;;;;;17.55;11.40;;;;;;;;;;5091375;28;20040;-54
2022/05/12 02:55:11;;;;;;;14.02;9.65;;;;;;;;;;5091701;28;20040;-54
2022/05/12 02:57:40;;;;;;;20.95;12.63;;;;;;;;;;5073739;28;20035;-45
2022/05/12 03:00:11;;;;;;;11.32;8.98;;;;;;;;;;5091282;28;20043;-51
2022/05/12 03:02:39;;;;;;;21.20;9.32;;;;;;;;;;5091149;28;20048;-56
2022/05/12 03:05:06;;;;;;;21.20;8.65;;;;;;;;;;5091197;28;20039;-58
2022/05/12 03:07:34;;;;;;;26.17;8.27;;;;;;;;;;5091188;28;20079;-49
2022/05/12 03:10:02;;;;;;;34.13;8.02;;;;;;;;;;5091172;28;20048;-50
2022/05/12 03:12:30;;;;;;;32.40;9.20;;;;;;;;;;5091194;28;20078;-56
2022/05/12 03:14:57;;;;;;;47.55;9.70;;;;;;;;;;5091168;28;20040;-58
2022/05/12 03:17:25;;;;;;;27.05;7.85;;;;;;;;;;5090924;28;20047;-58
2022/05/12 03:19:52;;;;;;;33.25;9.50;;;;;;;;;;5091201;28;20032;-56
2022/05/12 03:22:19;;;;;;;35.88;8.93;;;;;;;;;;5091076;28;20040;-57
2022/05/12 03:24:46;;;;;;;50.45;9.55;;;;;;;;;;5091096;28;20032;-58
2022/05/12 03:27:14;;;;;;;40.17;9.38;;;;;;;;;;5072349;28;20041;-50
2022/05/12 03:29:42;;;;;;;45.42;9.55;;;;;;;;;;5089853;28;20495;-57
2022/05/12 03:32:12;;;;;;;38.75;8.77;;;;;;;;;;5090790;28;20044;-47
2022/05/12 03:34:40;;;;;;;55.60;9.82;;;;;;;;;;5090779;28;20123;-46
2022/05/12 03:37:08;;;;;;;42.80;8.95;;;;;;;;;;5090562;28;20040;-53
2022/05/12 03:39:42;;;;;;;31.15;8.65;;;;;;;;;;5090749;28;20427;-45
2022/05/12 03:42:12;;;;;;;41.35;10.00;;;;;;;;;;5090356;28;20043;-58
2022/05/12 03:44:54;;;;;;;20.27;6.93;;;;;;;;;;5090829;28;20036;-48
2022/05/12 03:47:25;;;;;;;22.08;6.85;;;;;;;;;;5090526;28;20039;-48
2022/05/12 03:49:57;;;;;;;9.90;7.53;;;;;;;;;;5090635;28;20036;-44
2022/05/12 03:52:25;;;;;;;11.35;6.55;;;;;;;;;;5090462;28;20048;-47
2022/05/12 03:54:52;;;;;;;16.75;6.82;;;;;;;;;;5090458;28;20037;-47
2022/05/12 03:57:21;;;;;;;10.82;6.65;;;;;;;;;;5088876;28;20122;-44
2022/05/12 03:59:49;;;;;;;13.00;7.22;;;;;;;;;;5090332;28;20051;-46
2022/05/12 04:02:19;;;;;;;18.27;6.63;;;;;;;;;;5090053;28;20040;-47
2022/05/12 04:04:48;;;;;;;9.63;5.97;;;;;;;;;;5089296;28;20509;-44
2022/05/12 04:07:19;;;;;;;10.55;5.95;;;;;;;;;;5063850;28;89812;-44
2022/05/12 04:09:47;;;;;;;17.02;6.65;;;;;;;;;;5047885;28;20049;-45
2022/05/12 04:12:15;;;;;;;16.35;6.30;;;;;;;;;;5248393;22;20152;-45
2022/05/12 04:14:43;;;;;;;9.98;5.80;;;;;;;;;;5089792;28;20499;-46
2022/05/12 04:17:15;;;;;;;9.73;5.90;;;;;;;;;;5089833;28;20402;-47
2022/05/12 04:19:44;;;;;;;11.00;6.93;;;;;;;;;;5089868;28;20058;-42
2022/05/12 04:22:13;;;;;;;21.67;6.72;;;;;;;;;;5089939;28;20044;-45
2022/05/12 04:24:40;;;;;;;8.50;5.53;;;;;;;;;;5083372;27;87878;-45
2022/05/12 04:27:07;;;;;;;13.65;6.90;;;;;;;;;;5089946;28;20522;-45
2022/05/12 04:29:42;;;;;;;55.17;28.20;;;;;;;;;;5089621;28;20040;-42
2022/05/12 04:32:11;;;;;;;13.45;7.80;;;;;;;;;;5089870;28;20050;-43
2022/05/12 04:37:30;;;;;;;6.68;4.85;;;;;;;;;;5089574;28;20776;-44
2022/05/12 04:40:10;;;;;;;6.35;4.65;;;;;;;;;;5089836;28;20043;-47
2022/05/12 04:42:37;;;;;;;7.63;4.25;;;;;;;;;;5089334;28;20438;-56
2022/05/12 04:45:07;;;;;;;7.25;3.90;;;;;;;;;;5088117;28;20044;-56
2022/05/12 04:47:35;;;;;;;6.05;4.40;;;;;;;;;;5086783;28;20040;-51
2022/05/12 04:50:04;;;;;;;8.20;4.75;;;;;;;;;;5087149;28;20131;-52
2022/05/12 04:52:32;;;;;;;5.40;4.13;;;;;;;;;;5087255;28;20048;-59
2022/05/12 04:55:00;;;;;;;6.40;4.00;;;;;;;;;;5088328;28;20058;-44
2022/05/12 04:57:27;;;;;;;6.38;3.88;;;;;;;;;;5087728;28;20040;-46
2022/05/12 04:59:55;;;;;;;5.10;3.75;;;;;;;;;;5068296;28;20040;-47
2022/05/12 05:02:23;;;;;;;4.70;3.47;;;;;;;;;;5067940;28;20119;-44
2022/05/12 05:04:50;;;;;;;14.95;11.15;;;;;;;;;;5069075;28;20044;-46
2022/05/12 05:07:18;;;;;;;37.55;21.10;;;;;;;;;;5069302;28;20108;-44
2022/05/12 05:09:45;;;;;;;12.10;8.05;;;;;;;;;;5069087;28;20052;-44
2022/05/12 05:12:12;;;;;;;5.50;4.10;;;;;;;;;;5068642;28;20084;-46
2022/05/12 05:14:40;;;;;;;7.35;5.68;;;;;;;;;;5070622;28;20048;-46
2022/05/12 05:17:07;;;;;;;5.38;4.10;;;;;;;;;;5064045;22;20467;-62
2022/05/12 05:19:35;;;;;;;9.13;4.45;;;;;;;;;;5032399;28;20045;-53
2022/05/12 05:22:03;;;;;;;4.38;3.65;;;;;;;;;;5032893;28;20037;-48
2022/05/12 05:24:30;;;;;;;4.97;3.63;;;;;;;;;;5032307;28;20820;-46
2022/05/12 05:29:51;;;;;;;4.65;3.65;;;;;;;;;;5086337;23;20052;-59
2022/05/12 05:32:20;;;;;;;4.78;3.38;;;;;;;;;;4934666;29;20044;-59
2022/05/12 05:34:47;;;;;;;5.00;3.58;;;;;;;;;;4935177;29;20507;-60
2022/05/12 05:37:14;;;;;;;5.47;4.40;;;;;;;;;;4935080;29;20095;-60
2022/05/12 05:39:42;;;;;;;7.22;4.50;;;;;;;;;;4934999;29;20129;-55
2022/05/12 05:42:12;;;;;;;5.38;4.38;;;;;;;;;;4935267;29;20052;-60
2022/05/12 05:44:40;;;;;;;7.15;4.38;;;;;;;;;;4935101;29;20040;-61
2022/05/12 05:47:08;;;;;;;6.35;4.30;;;;;;;;;;4934999;29;20039;-60
2022/05/12 05:49:36;;;;;;;6.00;3.95;;;;;;;;;;4934682;29;20047;-59
2022/05/12 05:54:50;;;;;;;5.97;4.47;;;;;;;;;;4915957;29;20052;-55
2022/05/12 05:57:26;;;;;;;7.97;4.70;;;;;;;;;;4915983;29;20048;-53
2022/05/12 05:59:58;;;;;;;6.45;4.45;;;;;;;;;;4915569;29;20072;-60
2022/05/12 06:02:26;;;;;;;5.43;4.18;;;;;;;;;;4915620;29;20096;-60
2022/05/12 06:04:54;;;;;;;5.45;4.28;;;;;;;;;;4914968;29;20048;-60
2022/05/12 06:07:21;;;;;;;5.80;4.00;;;;;;;;;;4924287;29;20098;-59
2022/05/12 06:09:49;;;;;;;5.55;4.35;;;;;;;;;;4954097;29;20046;-49
2022/05/12 06:12:17;;;;;;;8.38;3.75;;;;;;;;;;4953814;28;20036;-61
2022/05/12 06:14:45;;;;;;;5.32;4.00;;;;;;;;;;4953757;29;20043;-59
2022/05/12 06:17:12;;;;;;;5.65;4.38;;;;;;;;;;4953811;28;20039;-57
2022/05/12 06:19:41;;;;;;;5.25;3.97;;;;;;;;;;4939458;28;20051;-59
2022/05/12 06:22:09;;;;;;;5.35;3.75;;;;;;;;;;4934313;29;20047;-59
2022/05/12 06:24:38;;;;;;;6.13;4.10;;;;;;;;;;4934735;29;20546;-58
2022/05/12 06:27:06;;;;;;;5.35;4.00;;;;;;;;;;4934424;29;20039;-58
2022/05/12 06:29:33;;;;;;;5.65;4.50;;;;;;;;;;4933964;29;20052;-58
2022/05/12 06:32:01;;;;;;;7.07;4.35;;;;;;;;;;4934522;29;20123;-58
2022/05/12 06:34:29;;;;;;;4.60;3.50;;;;;;;;;;4934457;29;20095;-59
2022/05/12 06:36:59;;;;;;;5.13;3.83;;;;;;;;;;4934367;29;20071;-59
2022/05/12 06:39:26;;;;;;;6.05;4.07;;;;;;;;;;4933971;29;20055;-52
2022/05/12 06:41:54;;;;;;;7.13;4.53;;;;;;;;;;4934329;29;20043;-59
2022/05/12 06:44:30;;;;;;;6.93;4.43;;;;;;;;;;4934708;29;20043;-58
2022/05/12 06:46:57;;;;;;;142.75;72.20;;;;;;;;;;4934039;29;20032;-58
2022/05/12 06:49:25;;;;;;;20.25;9.90;;;;;;;;;;4933124;29;20047;-59
2022/05/12 06:51:52;;;;;;;8.63;5.60;;;;;;;;;;4932636;29;20043;-56
2022/05/12 06:54:19;;;;;;;7.80;4.93;;;;;;;;;;4933059;29;20051;-62
2022/05/12 06:56:47;;;;;;;39.67;25.65;;;;;;;;;;4934183;29;20047;-60
2022/05/12 06:59:15;;;;;;;33.25;22.63;;;;;;;;;;4933607;29;20444;-60
2022/05/12 07:01:42;;;;;;;10.30;7.05;;;;;;;;;;4933772;29;20126;-58
2022/05/12 07:04:09;;;;;;;8.27;6.18;;;;;;;;;;4933695;29;20109;-59
2022/05/12 07:06:37;;;;;;;10.60;5.72;;;;;;;;;;4932915;29;20354;-59
2022/05/12 07:09:04;;;;;;;10.70;6.40;;;;;;;;;;4932835;29;20044;-60
2022/05/12 07:11:32;;;;;;;9.35;7.10;;;;;;;;;;4933620;29;20055;-59
2022/05/12 07:13:59;;;;;;;9.70;7.30;;;;;;;;;;4933596;29;20115;-59
2022/05/12 07:16:26;;;;;;;10.93;7.05;;;;;;;;;;4933668;29;20079;-57
2022/05/12 07:18:53;;;;;;;12.15;6.45;;;;;;;;;;4933350;29;20035;-58
2022/05/12 07:27:13;;;;;;;9.95;6.70;;;;;;;;;;4874367;29;20532;-59
2022/05/12 07:29:40;;;;;;;8.80;6.07;;;;;;;;;;4910185;29;20162;-58
2022/05/12 07:32:08;;;;;;;43.05;24.67;;;;;;;;;;4933367;29;20075;-55
2022/05/12 07:34:36;;;;;;;12.93;8.32;;;;;;;;;;4933425;29;20051;-58
2022/05/12 07:37:04;;;;;;;8.77;5.80;;;;;;;;;;4932990;29;20044;-56
2022/05/12 07:39:33;;;;;;;10.82;7.35;;;;;;;;;;4933018;29;20052;-57
2022/05/12 07:42:04;;;;;;;10.00;6.60;;;;;;;;;;4933109;29;20043;-58
2022/05/12 07:44:32;;;;;;;8.15;6.32;;;;;;;;;;4933227;29;20048;-56
2022/05/12 07:47:09;;;;;;;11.77;6.35;;;;;;;;;;4933096;29;20047;-54
2022/05/12 07:49:37;;;;;;;11.70;5.97;;;;;;;;;;4932885;29;20126;-52
2022/05/12 07:52:05;;;;;;;13.50;7.10;;;;;;;;;;4933071;29;20039;-54
2022/05/12 07:54:34;;;;;;;10.32;6.57;;;;;;;;;;4932800;29;20452;-53
2022/05/12 07:57:01;;;;;;;13.50;7.95;;;;;;;;;;4933210;29;20048;-57
2022/05/12 07:59:29;;;;;;;12.25;7.97;;;;;;;;;;4942916;29;20043;-56
2022/05/12 08:01:58;;;;;;;9.40;6.53;;;;;;;;;;4952136;28;20396;-57
2022/05/12 08:04:27;;;;;;;14.20;7.72;;;;;;;;;;4951764;29;20074;-57
2022/05/12 08:06:54;;;;;;;10.02;7.13;;;;;;;;;;4952086;28;20423;-58
2022/05/12 08:09:22;;;;;;;13.05;7.30;;;;;;;;;;4952134;28;20043;-57
2022/05/12 08:11:49;;;;;;;9.90;5.90;;;;;;;;;;4951919;28;20043;-55
2022/05/12 08:14:16;;;;;;;13.13;6.25;;;;;;;;;;4952060;28;20103;-57
2022/05/12 08:16:43;;;;;;;12.52;6.22;;;;;;;;;;4952775;28;20094;-57
2022/05/12 08:19:11;;;;;;;9.05;5.85;;;;;;;;;;4952134;28;20039;-57
2022/05/12 08:21:38;;;;;;;8.32;5.65;;;;;;;;;;4950534;29;20048;-55
2022/05/12 08:24:05;;;;;;;8.82;5.47;;;;;;;;;;4951927;28;20122;-55
2022/05/12 08:26:34;;;;;;;12.07;5.72;;;;;;;;;;4951818;28;20040;-52
2022/05/12 08:29:01;;;;;;;22.85;12.48;;;;;;;;;;4938548;28;20055;-61
2022/05/12 08:31:30;;;;;;;13.32;6.68;;;;;;;;;;4932486;29;20051;-55
2022/05/12 08:33:59;;;;;;;12.45;4.65;;;;;;;;;;4932632;29;20143;-52
2022/05/12 08:36:27;;;;;;;12.85;5.50;;;;;;;;;;4932784;29;20043;-49
2022/05/12 08:38:55;;;;;;;9.02;4.68;;;;;;;;;;4932909;29;20110;-57
2022/05/12 08:41:34;;;;;;;8.38;4.35;;;;;;;;;;4932508;29;20055;-53
2022/05/12 08:44:08;;;;;;;8.65;4.82;;;;;;;;;;4932772;29;20040;-51
2022/05/12 08:46:40;;;;;;;7.50;4.03;;;;;;;;;;4932583;29;20050;-56
2022/05/12 08:49:34;;;;;;;8.88;4.70;;;;;;;;;;4933445;29;20044;-55
2022/05/12 08:52:13;;;;;;;;;;;;;;;;;;4936598;29;20135;-50
2022/05/12 08:54:48;;;;;;;11.07;4.03;;;;;;;;;;4936117;29;19926;-56
2022/05/12 08:57:43;;;;;;;10.18;4.00;;;;;;;;;;4936252;29;20040;-58
2022/05/12 09:00:15;;;;;;;7.55;3.58;;;;;;;;;;4929067;29;20048;-52
2022/05/12 09:02:49;;;;;;;4.97;2.88;;;;;;;;;;4936782;29;20051;-57
2022/05/12 09:05:19;;;;;;;6.60;2.95;;;;;;;;;;4935791;29;20487;-54
2022/05/12 09:07:52;;;;;;;8.18;2.95;;;;;;;;;;4935898;29;20035;-58
2022/05/12 09:10:33;;;;;;;;;;;;;;;;;;4936398;29;20071;-57
2022/05/12 09:13:16;;;;;;;10.50;3.63;;;;;;;;;;4935731;29;19930;-53
2022/05/12 09:15:53;;;;;;;6.85;3.13;;;;;;;;;;4935668;29;20459;-53
2022/05/12 09:18:29;;;;;;;7.80;3.13;;;;;;;;;;4935876;29;20040;-56
2022/05/12 09:21:09;;;;;;;9.50;3.28;;;;;;;;;;4935974;29;20059;-58
2022/05/12 09:23:37;;;;;;;7.35;3.33;;;;;;;;;;4935846;29;20039;-59
2022/05/12 09:26:29;;;;;;;11.25;4.72;;;;;;;;;;4935429;29;20047;-56
2022/05/12 09:29:23;;;;;;;6.07;2.92;;;;;;;;;;4948061;28;20082;-56
2022/05/12 09:32:15;;;;;;;11.60;4.13;;;;;;;;;;4953517;29;20471;-57
2022/05/12 09:34:49;;;;;;;7.55;3.60;;;;;;;;;;4953611;28;20514;-57
2022/05/12 09:37:20;;;;;;;6.88;4.15;;;;;;;;;;4954654;29;20051;-57
2022/05/12 09:39:51;;;;;;;12.98;7.03;;;;;;;;;;4954601;29;20039;-56
2022/05/12 09:42:41;;;;;;;8.90;3.60;;;;;;;;;;4954389;28;20051;-55
2022/05/12 09:45:29;;;;;;;5.65;3.10;;;;;;;;;;4954458;28;20392;-56
2022/05/12 09:48:22;;;;;;;7.18;2.65;;;;;;;;;;4954575;28;20094;-55
2022/05/12 09:50:50;;;;;;;10.35;3.03;;;;;;;;;;4954724;28;20082;-57
2022/05/12 09:53:29;;;;;;;9.20;2.80;;;;;;;;;;4954241;28;20039;-57
2022/05/12 09:56:00;;;;;;;7.20;3.20;;;;;;;;;;4954503;29;20044;-56
2022/05/12 09:58:33;;;;;;;7.57;2.90;;;;;;;;;;4953281;29;20047;-57
2022/05/12 10:01:15;;;;;;;7.97;2.90;;;;;;;;;;4953806;28;20130;-58
2022/05/12 10:09:25;;;;;;;8.98;2.80;;;;;;;;;;4953990;28;20102;-51
2022/05/12 10:12:07;;;;;;;8.10;2.33;;;;;;;;;;4953699;28;20114;-62
2022/05/12 10:14:49;;;;;;;7.22;2.70;;;;;;;;;;4953977;28;20077;-63
2022/05/12 10:17:29;;;;;;;6.85;2.25;;;;;;;;;;4953922;29;20039;-63
2022/05/12 10:20:00;;;;;;;7.05;2.15;;;;;;;;;;4954059;28;20043;-63
2022/05/12 10:22:39;;;;;;;5.20;1.98;;;;;;;;;;4953649;29;20059;-60
2022/05/12 10:25:56;;;;;;;7.90;2.10;;;;;;;;;;4953743;28;20499;-62
2022/05/12 10:28:32;;;;;;;11.00;2.78;;;;;;;;;;4937899;29;20131;-54
2022/05/12 10:31:24;;;;;;;6.78;1.95;;;;;;;;;;4933308;29;20456;-63
2022/05/12 10:34:11;;;;;;;5.53;2.30;;;;;;;;;;4934619;29;20078;-57
2022/05/12 10:36:51;;;;;;;5.63;2.42;;;;;;;;;;4934281;29;20078;-64
2022/05/12 10:39:34;;;;;;;4.30;1.77;;;;;;;;;;4934010;29;20051;-62
2022/05/12 10:42:40;;;;;;;6.93;2.35;;;;;;;;;;4933239;29;20103;-62
2022/05/12 10:45:24;;;;;;;5.85;2.08;;;;;;;;;;4934068;29;20044;-49
2022/05/12 10:48:14;;;;;;;4.13;1.80;;;;;;;;;;4934273;29;20046;-56
2022/05/12 10:50:57;;;;;;;4.90;1.80;;;;;;;;;;4933989;29;20778;-47
2022/05/12 10:53:39;;;;;;;6.60;1.85;;;;;;;;;;4934089;29;20151;-50
2022/05/12 10:56:45;;;;;;;5.55;2.22;;;;;;;;;;4933772;29;20051;-61
2022/05/12 10:59:34;;;;;;;4.70;1.70;;;;;;;;;;4923298;29;20055;-49
2022/05/12 11:02:06;;;;;;;5.75;1.90;;;;;;;;;;4933606;29;20043;-49
2022/05/12 11:05:15;;;;;;;4.18;1.75;;;;;;;;;;4933840;29;20040;-48
2022/05/12 11:07:53;;;;;;;5.35;2.05;;;;;;;;;;4933599;29;20130;-51
2022/05/12 11:10:50;;;;;;;13.88;7.68;;;;;;;;;;4933687;29;20479;-61
2022/05/12 11:13:37;;;;;;;8.05;2.05;;;;;;;;;;4932597;29;20134;-62
2022/05/12 11:16:15;;;;;;;5.88;1.95;;;;;;;;;;4933684;29;20051;-53
2022/05/12 11:19:11;;;;;;;9.38;1.95;;;;;;;;;;4933466;29;20134;-62
2022/05/12 11:21:52;;;;;;;5.65;1.85;;;;;;;;;;4933783;29;20059;-61
2022/05/12 11:24:23;;;;;;;4.65;1.98;;;;;;;;;;4933580;29;20522;-49
2022/05/12 11:27:22;;;;;;;4.63;1.60;;;;;;;;;;4933154;29;20047;-61
2022/05/12 11:30:12;;;;;;;4.43;1.45;;;;;;;;;;4914267;29;20481;-61
2022/05/12 11:33:13;;;;;;;4.15;1.65;;;;;;;;;;4914224;29;20091;-59
2022/05/12 11:35:48;;;;;;;4.90;1.77;;;;;;;;;;4894026;29;20044;-50
2022/05/12 11:38:36;;;;;;;5.25;2.10;;;;;;;;;;4914490;29;20067;-51
2022/05/12 11:41:27;;;;;;;5.35;2.10;;;;;;;;;;4914581;29;20048;-58
2022/05/12 11:44:34;;;;;;;3.88;1.60;;;;;;;;;;4914066;29;20041;-51
2022/05/12 11:47:44;;;;;;;8.82;2.35;;;;;;;;;;4914564;29;20055;-59
2022/05/12 11:50:46;;;;;;;6.45;2.17;;;;;;;;;;4914080;29;20088;-60
2022/05/12 11:53:20;;;;;;;6.03;3.25;;;;;;;;;;4913974;29;20047;-49
2022/05/12 11:56:05;;;;;;;6.00;1.98;;;;;;;;;;4914075;29;20048;-49
2022/05/12 11:58:38;;;;;;;6.10;2.65;;;;;;;;;;4914406;29;20044;-58
2022/05/12 12:01:10;;;;;;;5.40;2.33;;;;;;;;;;4914156;29;20052;-62
2022/05/12 12:03:50;;;;;;;4.93;1.90;;;;;;;;;;4913868;29;20613;-53
2022/05/12 12:06:42;;;;;;;19.77;2.78;;;;;;;;;;4913918;29;20095;-53
2022/05/12 12:09:33;;;;;;;4.63;2.28;;;;;;;;;;4908120;29;20401;-63
2022/05/12 12:12:03;;;;;;;6.78;2.33;;;;;;;;;;4913793;29;20047;-50
2022/05/12 12:14:42;;;;;;;8.20;2.63;;;;;;;;;;4913088;29;20059;-64
2022/05/12 12:17:31;;;;;;;7.20;2.88;;;;;;;;;;4913560;29;20055;-51
2022/05/12 12:20:08;;;;;;;8.55;3.05;;;;;;;;;;4914177;29;20047;-65
2022/05/12 12:22:36;;;;;;;5.50;3.05;;;;;;;;;;4914837;29;20048;-48
2022/05/12 12:25:12;;;;;;;5.85;2.95;;;;;;;;;;4918268;29;20052;-49
2022/05/12 12:27:52;;;;;;;6.70;3.10;;;;;;;;;;4922968;29;20044;-68
2022/05/12 12:30:31;;;;;;;7.30;4.07;;;;;;;;;;4956020;28;20451;-61
2022/05/12 12:33:16;;;;;;;7.95;3.13;;;;;;;;;;4956113;28;20145;-71
2022/05/12 12:36:01;;;;;;;5.90;3.40;;;;;;;;;;4955793;28;20488;-49
2022/05/12 12:38:46;;;;;;;7.43;3.70;;;;;;;;;;4955499;29;20150;-48
2022/05/12 12:41:29;;;;;;;12.10;7.28;;;;;;;;;;4955554;28;20558;-49
2022/05/12 12:43:59;;;;;;;6.70;3.60;;;;;;;;;;4954397;29;20051;-66
2022/05/12 12:46:33;;;;;;;5.32;3.00;;;;;;;;;;4935877;29;20059;-63
2022/05/12 12:49:10;;;;;;;7.10;3.63;;;;;;;;;;4936184;29;20039;-65
2022/05/12 12:51:39;;;;;;;9.07;3.15;;;;;;;;;;4936101;29;20048;-63
2022/05/12 12:57:28;;;;;;;7.43;3.42;;;;;;;;;;4936307;29;20044;-65
2022/05/12 13:00:03;;;;;;;6.95;2.92;;;;;;;;;;4934893;29;20447;-62
2022/05/12 13:02:42;;;;;;;4.50;2.72;;;;;;;;;;4936110;29;20550;-56
2022/05/12 13:05:16;;;;;;;5.32;2.47;;;;;;;;;;4935788;29;20055;-51
2022/05/12 13:07:43;;;;;;;;;;;;;;;;;;4936511;29;20043;-49
2022/05/12 13:10:16;;;;;;;3.33;2.45;;;;;;;;;;4936082;29;19998;-47
2022/05/12 13:12:55;;;;;;;5.40;2.55;;;;;;;;;;4935993;29;20055;-66
2022/05/12 13:15:23;;;;;;;5.07;2.45;;;;;;;;;;4935661;29;20048;-51
2022/05/12 13:17:55;;;;;;;4.25;2.10;;;;;;;;;;4935840;29;20104;-65
2022/05/12 13:20:43;;;;;;;7.72;4.43;;;;;;;;;;4935916;29;20399;-64
2022/05/12 13:23:23;;;;;;;3.75;2.40;;;;;;;;;;4934352;29;20043;-48
2022/05/12 13:25:52;;;;;;;3.03;1.90;;;;;;;;;;4935181;29;20051;-61
2022/05/12 13:28:22;;;;;;;4.30;1.95;;;;;;;;;;4942981;29;20066;-62
2022/05/12 13:31:11;;;;;;;3.25;2.28;;;;;;;;;;4954706;28;20070;-62
2022/05/12 13:33:55;;;;;;;4.82;1.65;;;;;;;;;;4953335;28;20091;-48
2022/05/12 13:36:24;;;;;;;2.08;1.50;;;;;;;;;;4954132;28;20043;-53
2022/05/12 13:38:52;;;;;;;2.85;1.50;;;;;;;;;;4954452;28;20098;-56
2022/05/12 13:41:35;;;;;;;2.20;1.65;;;;;;;;;;4954789;28;20063;-51
2022/05/12 13:44:19;;;;;;;3.25;1.95;;;;;;;;;;4954505;28;20047;-52
2022/05/12 13:46:52;;;;;;;25.42;13.48;;;;;;;;;;4954607;28;20126;-53
2022/05/12 13:49:27;;;;;;;;;;;;;;;;;;4955168;28;20058;-53
2022/05/12 13:51:56;;;;;;;4.13;2.00;;;;;;;;;;4954344;29;19929;-67
2022/05/12 13:54:40;;;;;;;3.35;1.73;;;;;;;;;;4954878;28;20071;-68
2022/05/12 13:57:13;;;;;;;5.18;2.03;;;;;;;;;;4953517;28;20551;-52
2022/05/12 13:59:50;;;;;;;;;;;;;;;;;;4954790;28;20043;-66
2022/05/12 14:02:24;;;;;;;2.97;1.63;;;;;;;;;;4954337;28;19973;-67
2022/05/12 14:04:51;;;;;;;2.03;1.33;;;;;;;;;;4954146;28;20075;-64
2022/05/12 14:07:30;;;;;;;3.83;2.00;;;;;;;;;;4953669;28;20102;-53
2022/05/12 14:10:09;;;;;;;1.83;1.30;;;;;;;;;;4954100;28;20047;-66
2022/05/12 14:21:19;;;;;;;2.30;1.30;;;;;;;;;;4952754;29;20051;-52
2022/05/12 14:23:47;;;;;;;2.58;1.30;;;;;;;;;;4953621;28;20044;-58
2022/05/12 14:26:14;;;;;;;2.25;1.63;;;;;;;;;;4953642;29;20066;-59
2022/05/12 14:28:41;;;;;;;7.70;3.95;;;;;;;;;;4943115;28;20507;-64
2022/05/12 14:31:09;;;;;;;2.88;1.52;;;;;;;;;;4934673;29;20067;-56
2022/05/12 14:33:36;;;;;;;2.03;1.10;;;;;;;;;;4934002;29;20161;-50
2022/05/12 14:36:04;;;;;;;2.53;1.20;;;;;;;;;;4933796;29;20638;-52
2022/05/12 14:38:32;;;;;;;3.60;1.67;;;;;;;;;;4934535;29;20043;-61
2022/05/12 14:41:00;;;;;;;2.35;1.13;;;;;;;;;;4934518;29;20099;-57
2022/05/12 14:43:27;;;;;;;1.77;1.10;;;;;;;;;;4934259;29;20044;-55
2022/05/12 14:45:55;;;;;;;1.73;0.80;;;;;;;;;;4933805;29;20496;-60
2022/05/12 14:48:24;;;;;;;1.50;0.90;;;;;;;;;;4933690;29;20078;-52
2022/05/12 14:50:52;;;;;;;1.88;0.80;;;;;;;;;;4934076;29;20522;-51
2022/05/12 14:53:24;;;;;;;1.35;0.80;;;;;;;;;;4933964;29;20059;-61
2022/05/12 14:55:52;;;;;;;1.27;1.10;;;;;;;;;;4934091;29;20047;-61
2022/05/12 14:58:19;;;;;;;1.38;0.77;;;;;;;;;;4934171;29;20039;-63
2022/05/12 15:00:47;;;;;;;0.73;0.70;;;;;;;;;;4933946;29;20411;-62
2022/05/12 15:03:16;;;;;;;1.92;0.80;;;;;;;;;;4934319;29;20063;-62
2022/05/12 15:05:43;;;;;;;1.10;0.68;;;;;;;;;;4933945;29;20051;-48
2022/05/12 15:08:11;;;;;;;1.13;0.68;;;;;;;;;;4933769;29;20048;-63
2022/05/12 15:10:38;;;;;;;2.33;1.33;;;;;;;;;;4933848;29;20039;-46
2022/05/12 15:13:05;;;;;;;1.15;0.80;;;;;;;;;;4933246;29;20047;-51
2022/05/12 15:15:33;;;;;;;0.88;0.65;;;;;;;;;;4933675;29;20040;-60
2022/05/12 15:18:00;;;;;;;1.00;0.90;;;;;;;;;;4933997;29;20043;-57
2022/05/12 15:20:29;;;;;;;1.17;0.70;;;;;;;;;;4933602;29;20048;-57
2022/05/12 15:22:56;;;;;;;3.55;0.80;;;;;;;;;;4933237;29;20084;-63
2022/05/12 15:25:24;;;;;;;2.08;0.70;;;;;;;;;;4933525;29;20040;-47
2022/05/12 15:27:52;;;;;;;1.77;0.70;;;;;;;;;;4937261;29;20415;-49
2022/05/12 15:30:22;;;;;;;1.95;0.80;;;;;;;;;;4952308;28;20078;-56
2022/05/12 15:32:52;;;;;;;2.47;0.70;;;;;;;;;;4951079;29;20051;-48
2022/05/12 15:35:19;;;;;;;0.85;0.80;;;;;;;;;;4952351;29;20043;-45
2022/05/12 15:37:47;;;;;;;2.28;0.98;;;;;;;;;;4952430;28;20043;-63
2022/05/12 15:40:18;;;;;;;1.67;0.88;;;;;;;;;;4952755;28;20086;-64
2022/05/12 15:42:47;;;;;;;1.02;0.73;;;;;;;;;;4952825;28;20114;-60
2022/05/12 15:45:16;;;;;;;1.30;0.85;;;;;;;;;;4952207;28;20039;-51